createdAt,value
2022-12-18T00:00:57.883Z,12.16
2022-12-18T00:02:37.659Z,12.15
2022-12-18T00:04:17.397Z,12.15
2022-12-18T00:05:57.168Z,12.16
2022-12-18T00:07:36.948Z,12.15
2022-12-18T00:09:16.691Z,12.15
2022-12-18T00:10:56.462Z,12.15
2022-12-18T00:12:36.907Z,12.17
2022-12-18T00:14:15.976Z,12.17
2022-12-18T00:15:55.748Z,12.17
2022-12-18T00:17:35.537Z,12.17
2022-12-18T00:19:15.363Z,12.17
2022-12-18T00:20:55.069Z,12.17
2022-12-18T00:22:34.811Z,12.15
2022-12-18T00:24:14.569Z,12.16
2022-12-18T00:25:54.336Z,12.17
2022-12-18T00:27:34.129Z,12.17
2022-12-18T00:29:13.857Z,12.17
2022-12-18T00:30:53.651Z,12.17
2022-12-18T00:32:33.402Z,12.17
2022-12-18T00:34:13.192Z,12.16
2022-12-18T00:35:52.913Z,12.16
2022-12-18T00:37:32.684Z,12.17
2022-12-18T00:39:12.452Z,12.16
2022-12-18T00:40:52.216Z,12.15
2022-12-18T00:42:31.987Z,12.16
2022-12-18T00:44:11.729Z,12.16
2022-12-18T00:45:51.497Z,12.17
2022-12-18T00:47:31.270Z,12.17
2022-12-18T00:49:11.032Z,12.14
2022-12-18T00:50:50.794Z,12.14
2022-12-18T00:52:30.551Z,12.16
2022-12-18T00:54:10.420Z,12.14
2022-12-18T00:55:50.116Z,12.16
2022-12-18T00:57:29.857Z,12.14
2022-12-18T00:59:09.602Z,12.17
2022-12-18T01:00:49.386Z,12.14
2022-12-18T01:02:29.134Z,12.16
2022-12-18T01:04:08.903Z,12.16
2022-12-18T01:05:48.667Z,12.14
2022-12-18T01:07:28.438Z,12.17
2022-12-18T01:09:08.194Z,12.17
2022-12-18T01:10:47.970Z,12.16
2022-12-18T01:12:27.723Z,12.14
2022-12-18T01:14:07.502Z,12.15
2022-12-18T01:15:47.257Z,12.14
2022-12-18T01:17:27.009Z,12.14
2022-12-18T01:19:06.791Z,12.16
2022-12-18T01:20:46.542Z,12.17
2022-12-18T01:22:26.315Z,12.14
2022-12-18T01:24:06.076Z,12.16
2022-12-18T01:25:45.844Z,12.15
2022-12-18T01:27:25.592Z,12.15
2022-12-18T01:29:05.362Z,12.16
2022-12-18T01:30:45.132Z,12.16
2022-12-18T01:32:24.882Z,12.16
2022-12-18T01:34:04.661Z,12.16
2022-12-18T01:35:44.439Z,12.15
2022-12-18T01:37:24.172Z,12.13
2022-12-18T01:39:03.944Z,12.14
2022-12-18T01:40:43.783Z,12.13
2022-12-18T01:42:23.478Z,12.15
2022-12-18T01:44:03.244Z,12.13
2022-12-18T01:45:42.989Z,12.13
2022-12-18T01:47:22.770Z,12.13
2022-12-18T01:49:02.518Z,12.15
2022-12-18T01:50:42.355Z,12.13
2022-12-18T01:52:22.052Z,12.16
2022-12-18T01:54:01.818Z,12.13
2022-12-18T01:55:41.577Z,12.14
2022-12-18T01:57:21.361Z,12.16
2022-12-18T01:59:01.118Z,12.13
2022-12-18T02:00:40.876Z,12.13
2022-12-18T02:02:20.640Z,12.15
2022-12-18T02:04:00.401Z,12.15
2022-12-18T02:05:40.172Z,12.14
2022-12-18T02:07:19.943Z,12.15
2022-12-18T02:08:59.697Z,12.15
2022-12-18T02:10:39.455Z,12.15
2022-12-18T02:12:19.207Z,12.13
2022-12-18T02:13:59.001Z,12.15
2022-12-18T02:15:38.743Z,12.14
2022-12-18T02:17:18.508Z,12.13
2022-12-18T02:18:58.286Z,12.13
2022-12-18T02:20:38.050Z,12.15
2022-12-18T02:22:17.802Z,12.14
2022-12-18T02:23:57.577Z,12.15
2022-12-18T02:25:37.327Z,12.15
2022-12-18T02:27:17.098Z,12.16
2022-12-18T02:28:56.900Z,12.13
2022-12-18T02:30:36.616Z,12.13
2022-12-18T02:32:16.377Z,12.15
2022-12-18T02:33:56.155Z,12.15
2022-12-18T02:35:35.918Z,12.14
2022-12-18T02:37:15.665Z,12.12
2022-12-18T02:38:55.433Z,12.13
2022-12-18T02:40:35.216Z,12.15
2022-12-18T02:42:14.971Z,12.13
2022-12-18T02:43:54.725Z,12.14
2022-12-18T02:45:34.501Z,12.15
2022-12-18T02:47:14.277Z,12.16
2022-12-18T02:48:54.030Z,12.15
2022-12-18T02:50:33.785Z,12.13
2022-12-18T02:52:13.557Z,12.14
2022-12-18T02:53:53.311Z,12.15
2022-12-18T02:55:33.080Z,12.13
2022-12-18T02:57:12.830Z,12.15
2022-12-18T02:58:52.603Z,12.14
2022-12-18T03:00:32.376Z,12.12
2022-12-18T03:02:12.139Z,12.14
2022-12-18T03:03:51.900Z,12.12
2022-12-18T03:05:31.656Z,12.14
2022-12-18T03:07:11.446Z,12.12
2022-12-18T03:08:51.186Z,12.14
2022-12-18T03:10:30.946Z,12.12
2022-12-18T03:12:10.721Z,12.15
2022-12-18T03:13:50.480Z,12.15
2022-12-18T03:15:30.254Z,12.14
2022-12-18T03:17:10.017Z,12.13
2022-12-18T03:18:49.792Z,12.13
2022-12-18T03:20:29.541Z,12.12
2022-12-18T03:22:09.305Z,12.14
2022-12-18T03:23:49.083Z,12.12
2022-12-18T03:25:28.852Z,12.12
2022-12-18T03:27:08.589Z,12.12
2022-12-18T03:28:48.428Z,12.15
2022-12-18T03:30:28.108Z,12.12
2022-12-18T03:32:07.939Z,12.12
2022-12-18T03:33:47.718Z,12.14
2022-12-18T03:35:27.416Z,12.14
2022-12-18T03:37:07.202Z,12.12
2022-12-18T03:38:46.939Z,12.13
2022-12-18T03:40:26.702Z,12.12
2022-12-18T03:42:06.465Z,12.13
2022-12-18T03:43:46.230Z,12.14
2022-12-18T03:45:25.993Z,12.15
2022-12-18T03:47:05.757Z,12.14
2022-12-18T03:48:45.603Z,12.12
2022-12-18T03:50:25.291Z,12.12
2022-12-18T03:52:05.080Z,12.14
2022-12-18T03:53:44.812Z,12.13
2022-12-18T03:55:24.571Z,12.14
2022-12-18T03:57:04.342Z,12.14
2022-12-18T03:58:44.106Z,12.12
2022-12-18T04:00:23.875Z,12.13
2022-12-18T04:02:03.657Z,12.15
2022-12-18T04:03:43.392Z,12.14
2022-12-18T04:05:23.169Z,12.14
2022-12-18T04:07:02.941Z,12.14
2022-12-18T04:08:42.681Z,12.13
2022-12-18T04:10:22.458Z,12.11
2022-12-18T04:12:02.209Z,12.14
2022-12-18T04:13:41.970Z,12.14
2022-12-18T04:15:21.748Z,12.13
2022-12-18T04:17:01.506Z,12.11
2022-12-18T04:18:41.261Z,12.14
2022-12-18T04:20:21.055Z,12.14
2022-12-18T04:22:00.821Z,12.13
2022-12-18T04:23:40.583Z,12.11
2022-12-18T04:25:20.326Z,12.13
2022-12-18T04:27:00.091Z,12.11
2022-12-18T04:28:39.852Z,12.11
2022-12-18T04:30:19.631Z,12.13
2022-12-18T04:31:59.384Z,12.14
2022-12-18T04:33:39.143Z,12.13
2022-12-18T04:35:18.905Z,12.13
2022-12-18T04:36:58.666Z,12.11
2022-12-18T04:38:38.440Z,12.13
2022-12-18T04:40:18.212Z,12.14
2022-12-18T04:41:57.963Z,12.11
2022-12-18T04:43:37.792Z,12.12
2022-12-18T04:45:17.482Z,12.14
2022-12-18T04:46:57.247Z,12.12
2022-12-18T04:48:37.284Z,12.13
2022-12-18T04:50:16.793Z,12.13
2022-12-18T04:51:56.554Z,12.12
2022-12-18T04:53:36.313Z,12.11
2022-12-18T04:55:16.073Z,12.11
2022-12-18T04:56:55.839Z,12.11
2022-12-18T04:58:35.615Z,12.12
2022-12-18T05:00:15.370Z,12.13
2022-12-18T05:01:55.131Z,12.12
2022-12-18T05:03:34.898Z,12.1
2022-12-18T05:05:14.652Z,12.12
2022-12-18T05:06:54.421Z,12.12
2022-12-18T05:08:34.175Z,12.11
2022-12-18T05:10:13.945Z,12.12
2022-12-18T05:11:53.733Z,12.12
2022-12-18T05:13:33.541Z,12.13
2022-12-18T05:15:13.239Z,12.12
2022-12-18T05:16:53.010Z,12.1
2022-12-18T05:18:32.774Z,12.1
2022-12-18T05:20:12.525Z,12.1
2022-12-18T05:21:52.296Z,12.12
2022-12-18T05:23:32.062Z,12.12
2022-12-18T05:25:11.832Z,12.12
2022-12-18T05:26:51.593Z,12.1
2022-12-18T05:28:31.350Z,12.12
2022-12-18T05:30:11.120Z,12.12
2022-12-18T05:31:50.868Z,12.1
2022-12-18T05:33:30.639Z,12.12
2022-12-18T05:35:10.413Z,12.11
2022-12-18T05:36:50.196Z,12.12
2022-12-18T05:38:29.941Z,12.11
2022-12-18T05:40:09.691Z,12.1
2022-12-18T05:41:49.469Z,12.1
2022-12-18T05:43:29.241Z,12.12
2022-12-18T05:45:08.991Z,12.1
2022-12-18T05:46:48.747Z,12.13
2022-12-18T05:48:28.522Z,12.11
2022-12-18T05:50:08.363Z,12.12
2022-12-18T05:51:48.051Z,12.12
2022-12-18T05:53:27.810Z,12.11
2022-12-18T05:55:07.570Z,12.12
2022-12-18T05:56:47.341Z,12.11
2022-12-18T05:58:27.205Z,12.12
2022-12-18T06:00:06.856Z,12.12
2022-12-18T06:01:46.631Z,12.12
2022-12-18T06:03:26.400Z,12.11
2022-12-18T06:05:06.159Z,12.1
2022-12-18T06:06:45.931Z,12.12
2022-12-18T06:08:25.679Z,12.11
2022-12-18T06:10:05.437Z,12.1
2022-12-18T06:11:45.266Z,12.11
2022-12-18T06:13:24.975Z,12.1
2022-12-18T06:15:04.770Z,12.12
2022-12-18T06:16:44.497Z,12.11
2022-12-18T06:18:24.257Z,12.09
2022-12-18T06:20:04.021Z,12.12
2022-12-18T06:21:43.789Z,12.12
2022-12-18T06:23:23.559Z,12.12
2022-12-18T06:25:03.342Z,12.12
2022-12-18T06:26:43.081Z,12.12
2022-12-18T06:28:22.850Z,12.09
2022-12-18T06:30:02.633Z,12.12
2022-12-18T06:31:42.366Z,12.11
2022-12-18T06:33:22.145Z,12.12
2022-12-18T06:35:01.910Z,12.09
2022-12-18T06:36:41.667Z,12.11
2022-12-18T06:38:21.438Z,12.1
2022-12-18T06:40:01.196Z,12.1
2022-12-18T06:41:40.989Z,12.09
2022-12-18T06:43:20.723Z,12.11
2022-12-18T06:45:00.476Z,12.09
2022-12-18T06:46:40.258Z,12.1
2022-12-18T06:48:20.018Z,12.13
2022-12-18T06:49:59.783Z,12.1
2022-12-18T06:51:39.541Z,12.1
2022-12-18T06:53:19.359Z,12.09
2022-12-18T06:54:59.061Z,12.12
2022-12-18T06:56:38.834Z,12.09
2022-12-18T06:58:18.608Z,12.11
2022-12-18T06:59:58.381Z,12.12
2022-12-18T07:01:38.114Z,12.1
2022-12-18T07:03:17.882Z,12.09
2022-12-18T07:04:57.650Z,12.1
2022-12-18T07:06:37.435Z,12.09
2022-12-18T07:08:17.181Z,12.09
2022-12-18T07:09:56.955Z,12.12
2022-12-18T07:11:36.708Z,12.11
2022-12-18T07:13:16.465Z,12.09
2022-12-18T07:14:56.269Z,12.11
2022-12-18T07:16:35.994Z,12.11
2022-12-18T07:18:15.805Z,12.12
2022-12-18T07:19:55.527Z,12.11
2022-12-18T07:21:35.311Z,12.12
2022-12-18T07:23:15.051Z,12.09
2022-12-18T07:24:54.819Z,12.12
2022-12-18T07:26:34.659Z,12.11
2022-12-18T07:28:14.371Z,12.12
2022-12-18T07:29:54.105Z,12.11
2022-12-18T07:31:33.879Z,12.12
2022-12-18T07:33:13.700Z,12.1
2022-12-18T07:34:53.422Z,12.11
2022-12-18T07:36:33.177Z,12.12
2022-12-18T07:38:12.933Z,12.12
2022-12-18T07:39:52.703Z,12.09
2022-12-18T07:41:32.463Z,12.12
2022-12-18T07:43:12.234Z,12.12
2022-12-18T07:44:51.971Z,12.12
2022-12-18T07:46:31.745Z,12.1
2022-12-18T07:48:11.591Z,12.13
2022-12-18T07:49:51.275Z,12.12
2022-12-18T07:51:31.047Z,12.12
2022-12-18T07:53:10.821Z,12.12
2022-12-18T07:54:50.563Z,12.1
2022-12-18T07:56:30.328Z,12.11
2022-12-18T07:58:10.088Z,12.13
2022-12-18T07:59:49.855Z,12.13
2022-12-18T08:01:29.613Z,12.1
2022-12-18T08:03:09.376Z,12.13
2022-12-18T08:04:49.153Z,12.11
2022-12-18T08:06:28.966Z,12.13
2022-12-18T08:08:08.669Z,12.13
2022-12-18T08:09:48.445Z,12.14
2022-12-18T08:11:28.252Z,12.13
2022-12-18T08:13:07.969Z,12.12
2022-12-18T08:14:47.729Z,12.13
2022-12-18T08:16:27.489Z,12.11
2022-12-18T08:18:07.276Z,12.11
2022-12-18T08:19:47.019Z,12.11
2022-12-18T08:21:26.795Z,12.14
2022-12-18T08:23:06.564Z,12.12
2022-12-18T08:24:46.310Z,12.11
2022-12-18T08:26:26.081Z,12.14
2022-12-18T08:28:05.831Z,12.14
2022-12-18T08:29:45.754Z,12.14
2022-12-18T08:31:25.395Z,12.16
2022-12-18T08:33:05.133Z,12.13
2022-12-18T08:34:44.912Z,12.16
2022-12-18T08:36:24.661Z,12.13
2022-12-18T08:38:04.424Z,12.15
2022-12-18T08:39:44.188Z,12.15
2022-12-18T08:41:23.974Z,12.15
2022-12-18T08:43:03.752Z,12.13
2022-12-18T08:44:43.482Z,12.15
2022-12-18T08:46:23.247Z,12.13
2022-12-18T08:48:03.006Z,12.15
2022-12-18T08:49:42.770Z,12.14
2022-12-18T08:51:22.548Z,12.17
2022-12-18T08:53:02.302Z,12.18
2022-12-18T08:54:42.090Z,12.18
2022-12-18T08:56:21.847Z,12.14
2022-12-18T08:58:01.593Z,12.16
2022-12-18T08:59:41.373Z,12.17
2022-12-18T09:01:21.160Z,12.17
2022-12-18T09:03:00.892Z,12.15
2022-12-18T09:04:40.645Z,12.17
2022-12-18T09:06:20.410Z,12.16
2022-12-18T09:08:00.264Z,12.14
2022-12-18T09:09:39.950Z,12.13
2022-12-18T09:11:19.727Z,12.15
2022-12-18T09:12:59.462Z,12.16
2022-12-18T09:14:39.249Z,12.15
2022-12-18T09:16:18.985Z,12.18
2022-12-18T09:17:58.759Z,12.17
2022-12-18T09:19:38.511Z,12.16
2022-12-18T09:21:18.277Z,12.14
2022-12-18T09:22:58.111Z,12.14
2022-12-18T09:24:37.877Z,12.16
2022-12-18T09:26:17.575Z,12.15
2022-12-18T09:27:57.340Z,12.16
2022-12-18T09:29:37.095Z,12.13
2022-12-18T09:31:16.878Z,12.16
2022-12-18T09:32:56.632Z,12.14
2022-12-18T09:34:36.408Z,12.16
2022-12-18T09:36:16.163Z,12.15
2022-12-18T09:37:55.919Z,12.16
2022-12-18T09:39:35.695Z,12.16
2022-12-18T09:41:15.450Z,12.14
2022-12-18T09:42:55.217Z,12.15
2022-12-18T09:44:35.026Z,12.13
2022-12-18T09:46:14.742Z,12.16
2022-12-18T09:47:54.504Z,12.16
2022-12-18T09:49:34.270Z,12.18
2022-12-18T09:51:14.137Z,12.19
2022-12-18T09:52:53.785Z,12.16
2022-12-18T09:54:33.561Z,12.15
2022-12-18T09:56:13.324Z,12.15
2022-12-18T09:57:53.082Z,12.16
2022-12-18T09:59:32.900Z,12.14
2022-12-18T10:01:12.620Z,12.14
2022-12-18T10:02:52.383Z,12.15
2022-12-18T10:04:32.168Z,12.15
2022-12-18T10:06:11.903Z,12.14
2022-12-18T10:07:51.666Z,12.16
2022-12-18T10:09:31.452Z,12.15
2022-12-18T10:11:11.205Z,12.16
2022-12-18T10:12:50.968Z,12.13
2022-12-18T10:14:30.772Z,12.15
2022-12-18T10:16:10.501Z,12.16
2022-12-18T10:17:50.238Z,12.16
2022-12-18T10:19:30.024Z,12.16
2022-12-18T10:21:09.787Z,12.16
2022-12-18T10:22:49.539Z,12.15
2022-12-18T10:24:29.316Z,12.17
2022-12-18T10:26:09.161Z,12.15
2022-12-18T10:27:48.915Z,12.16
2022-12-18T10:29:28.600Z,12.14
2022-12-18T10:31:08.398Z,12.15
2022-12-18T10:32:48.138Z,12.15
2022-12-18T10:34:27.882Z,12.13
2022-12-18T10:36:07.695Z,12.15
2022-12-18T10:37:47.415Z,12.13
2022-12-18T10:39:27.293Z,12.14
2022-12-18T10:41:06.974Z,12.16
2022-12-18T10:42:46.722Z,12.15
2022-12-18T10:44:26.481Z,12.15
2022-12-18T10:46:06.232Z,12.15
2022-12-18T10:47:45.987Z,12.16
2022-12-18T10:49:25.765Z,12.16
2022-12-18T10:51:05.520Z,12.16
2022-12-18T10:52:45.447Z,12.16
2022-12-18T10:54:25.041Z,12.15
2022-12-18T10:56:04.820Z,12.16
2022-12-18T10:57:44.597Z,12.16
2022-12-18T10:59:24.355Z,12.16
2022-12-18T11:01:04.128Z,12.16
2022-12-18T11:02:43.931Z,12.16
2022-12-18T11:04:23.650Z,12.17
2022-12-18T11:06:03.428Z,12.17
2022-12-18T11:07:43.184Z,12.17
2022-12-18T11:09:22.944Z,12.19
2022-12-18T11:11:02.762Z,12.17
2022-12-18T11:12:42.465Z,12.16
2022-12-18T11:14:22.224Z,12.18
2022-12-18T11:16:01.975Z,12.17
2022-12-18T11:17:41.811Z,12.17
2022-12-18T11:19:21.513Z,12.16
2022-12-18T11:21:01.285Z,12.17
2022-12-18T11:22:41.043Z,12.16
2022-12-18T11:24:20.798Z,12.17
2022-12-18T11:26:00.653Z,12.16
2022-12-18T11:27:40.327Z,12.17
2022-12-18T11:29:20.102Z,12.15
2022-12-18T11:30:59.857Z,12.16
2022-12-18T11:32:39.651Z,12.17
2022-12-18T11:34:19.398Z,12.15
2022-12-18T11:35:59.141Z,12.15
2022-12-18T11:37:38.904Z,12.15
2022-12-18T11:39:18.705Z,12.17
2022-12-18T11:40:58.444Z,12.16
2022-12-18T11:42:38.204Z,12.16
2022-12-18T11:44:17.964Z,12.17
2022-12-18T11:45:57.725Z,12.15
2022-12-18T11:47:37.502Z,12.16
2022-12-18T11:49:17.264Z,12.16
2022-12-18T11:50:57.028Z,12.14
2022-12-18T11:52:36.789Z,12.14
2022-12-18T11:54:16.548Z,12.13
2022-12-18T11:55:56.305Z,12.16
2022-12-18T11:57:36.077Z,12.14
2022-12-18T11:59:15.840Z,12.13
2022-12-18T12:00:55.618Z,12.14
2022-12-18T12:02:35.371Z,12.16
2022-12-18T12:04:15.133Z,12.16
2022-12-18T12:05:54.895Z,12.13
2022-12-18T12:07:34.652Z,12.14
2022-12-18T12:09:14.502Z,12.14
2022-12-18T12:10:54.189Z,12.15
2022-12-18T12:12:33.957Z,12.17
2022-12-18T12:14:13.715Z,12.14
2022-12-18T12:15:53.489Z,12.13
2022-12-18T12:17:33.243Z,12.16
2022-12-18T12:19:12.989Z,12.15
2022-12-18T12:20:52.791Z,12.15
2022-12-18T12:22:32.519Z,12.15
2022-12-18T12:24:12.360Z,12.14
2022-12-18T12:25:52.074Z,12.14
2022-12-18T12:27:31.835Z,12.17
2022-12-18T12:29:11.607Z,12.17
2022-12-18T12:30:51.351Z,12.18
2022-12-18T12:32:31.124Z,12.15
2022-12-18T12:34:10.879Z,12.14
2022-12-18T12:35:50.685Z,12.14
2022-12-18T12:37:30.410Z,12.15
2022-12-18T12:39:10.178Z,12.15
2022-12-18T12:40:49.937Z,12.13
2022-12-18T12:42:29.696Z,12.14
2022-12-18T12:44:09.471Z,12.12
2022-12-18T12:45:49.389Z,12.16
2022-12-18T12:47:28.994Z,12.13
2022-12-18T12:49:08.918Z,12.14
2022-12-18T12:50:48.516Z,12.16
2022-12-18T12:52:28.287Z,12.14
2022-12-18T12:54:08.223Z,12.15
2022-12-18T12:55:47.935Z,12.16
2022-12-18T12:57:27.723Z,12.14
2022-12-18T12:59:07.518Z,12.17
2022-12-18T13:00:47.299Z,12.16
2022-12-18T13:02:26.974Z,12.13
2022-12-18T13:04:06.745Z,12.15
2022-12-18T13:05:46.389Z,12.15
2022-12-18T13:07:26.187Z,12.13
2022-12-18T13:09:05.924Z,12.13
2022-12-18T13:10:45.684Z,12.13
2022-12-18T13:12:25.454Z,12.12
2022-12-18T13:14:05.213Z,12.15
2022-12-18T13:15:45.009Z,12.15
2022-12-18T13:17:24.829Z,12.14
2022-12-18T13:19:04.641Z,12.12
2022-12-18T13:20:44.405Z,12.14
2022-12-18T13:22:24.164Z,12.11
2022-12-18T13:24:03.825Z,12.12
2022-12-18T13:25:43.584Z,12.12
2022-12-18T13:27:23.315Z,12.14
2022-12-18T13:29:03.248Z,12.14
2022-12-18T13:30:42.980Z,12.15
2022-12-18T13:32:22.760Z,12.13
2022-12-18T13:34:02.422Z,12.16
2022-12-18T13:35:42.147Z,12.12
2022-12-18T13:37:21.908Z,12.12
2022-12-18T13:39:01.720Z,12.12
2022-12-18T13:40:41.629Z,12.12
2022-12-18T13:42:21.365Z,12.11
2022-12-18T13:44:00.971Z,12.14
2022-12-18T13:45:40.724Z,12.12
2022-12-18T13:47:20.481Z,12.1
2022-12-18T13:49:00.275Z,12.12
2022-12-18T13:50:40.016Z,12.1
2022-12-18T13:52:19.765Z,12.12
2022-12-18T13:53:59.535Z,12.12
2022-12-18T13:55:39.420Z,12.1
2022-12-18T13:57:19.072Z,12.1
2022-12-18T13:58:58.973Z,12.12
2022-12-18T14:00:38.630Z,12.12
2022-12-18T14:02:18.518Z,12.12
2022-12-18T14:03:58.229Z,12.11
2022-12-18T14:05:38.054Z,12.1
2022-12-18T14:07:17.681Z,12.11
2022-12-18T14:08:57.447Z,12.12
2022-12-18T14:10:37.251Z,12.12
2022-12-18T14:12:16.961Z,12.12
2022-12-18T14:13:56.715Z,12.1
2022-12-18T14:15:36.557Z,12.1
2022-12-18T14:17:16.234Z,12.1
2022-12-18T14:18:56.000Z,12.1
2022-12-18T14:20:35.769Z,12.1
2022-12-18T14:22:15.517Z,12.12
2022-12-18T14:23:55.282Z,12.12
2022-12-18T14:25:35.062Z,12.1
2022-12-18T14:27:14.813Z,12.1
2022-12-18T14:28:54.577Z,12.09
2022-12-18T14:30:34.351Z,12.13
2022-12-18T14:32:14.123Z,12.09
2022-12-18T14:33:53.883Z,12.09
2022-12-18T14:35:33.647Z,12.09
2022-12-18T14:37:13.412Z,12.11
2022-12-18T14:38:53.161Z,12.11
2022-12-18T14:40:32.934Z,12.1
2022-12-18T14:42:12.704Z,12.1
2022-12-18T14:43:52.455Z,12.11
2022-12-18T14:45:32.226Z,12.09
2022-12-18T14:47:11.998Z,12.08
2022-12-18T14:48:51.776Z,12.1
2022-12-18T14:50:31.511Z,12.08
2022-12-18T14:52:11.285Z,12.08
2022-12-18T14:53:51.040Z,12.11
2022-12-18T14:55:30.803Z,12.11
2022-12-18T14:57:10.583Z,12.11
2022-12-18T14:58:50.326Z,12.11
2022-12-18T15:00:30.106Z,12.09
2022-12-18T15:02:09.863Z,12.09
2022-12-18T15:03:49.615Z,12.08
2022-12-18T15:05:29.393Z,12.08
2022-12-18T15:07:09.153Z,12.11
2022-12-18T15:08:48.910Z,12.1
2022-12-18T15:10:28.691Z,12.08
2022-12-18T15:12:08.438Z,12.12
2022-12-18T15:13:48.248Z,12.08
2022-12-18T15:15:27.975Z,12.11
2022-12-18T15:17:07.732Z,12.09
2022-12-18T15:18:47.492Z,12.11
2022-12-18T15:20:27.269Z,12.08
2022-12-18T15:22:07.045Z,12.08
2022-12-18T15:23:46.808Z,12.08
2022-12-18T15:25:26.549Z,12.08
2022-12-18T15:27:06.314Z,12.08
2022-12-18T15:28:46.088Z,12.1
2022-12-18T15:30:25.844Z,12.08
2022-12-18T15:32:05.617Z,12.1
2022-12-18T15:33:45.373Z,12.1
2022-12-18T15:35:25.131Z,12.1
2022-12-18T15:37:04.902Z,12.1
2022-12-18T15:38:44.676Z,12.08
2022-12-18T15:40:24.431Z,12.1
2022-12-18T15:42:04.189Z,12.08
2022-12-18T15:43:43.955Z,12.09
2022-12-18T15:45:23.721Z,12.09
2022-12-18T15:47:03.481Z,12.07
2022-12-18T15:48:43.247Z,12.1
2022-12-18T15:50:23.017Z,12.1
2022-12-18T15:52:02.770Z,12.1
2022-12-18T15:53:42.532Z,12.08
2022-12-18T15:55:22.308Z,12.07
2022-12-18T15:57:02.070Z,12.11
2022-12-18T15:58:41.843Z,12.1
2022-12-18T16:00:21.621Z,12.07
2022-12-18T16:02:01.363Z,12.1
2022-12-18T16:03:41.121Z,12.07
2022-12-18T16:05:20.881Z,12.11
2022-12-18T16:07:00.670Z,12.09
2022-12-18T16:08:40.429Z,12.1
2022-12-18T16:10:20.180Z,12.09
2022-12-18T16:11:59.937Z,12.1
2022-12-18T16:13:39.696Z,12.07
2022-12-18T16:15:19.457Z,12.1
2022-12-18T16:16:59.231Z,12.1
2022-12-18T16:18:39.002Z,12.07
2022-12-18T16:20:18.763Z,12.09
2022-12-18T16:21:58.528Z,12.1
2022-12-18T16:23:38.299Z,12.1
2022-12-18T16:25:18.066Z,12.07
2022-12-18T16:26:57.831Z,12.09
2022-12-18T16:28:37.589Z,12.08
2022-12-18T16:30:17.356Z,12.09
2022-12-18T16:31:57.096Z,12.07
2022-12-18T16:33:36.894Z,12.1
2022-12-18T16:35:16.656Z,12.07
2022-12-18T16:36:56.411Z,12.07
2022-12-18T16:38:36.163Z,12.07
2022-12-18T16:40:15.913Z,12.1
2022-12-18T16:41:55.678Z,12.07
2022-12-18T16:43:35.436Z,12.09
2022-12-18T16:45:15.213Z,12.08
2022-12-18T16:46:54.969Z,12.08
2022-12-18T16:48:34.777Z,12.07
2022-12-18T16:50:14.512Z,12.07
2022-12-18T16:51:54.267Z,12.09
2022-12-18T16:53:34.040Z,12.07
2022-12-18T16:55:13.794Z,12.09
2022-12-18T16:56:53.569Z,12.09
2022-12-18T16:58:33.348Z,12.07
2022-12-18T17:00:13.098Z,12.09
2022-12-18T17:01:52.858Z,12.09
2022-12-18T17:03:32.602Z,12.07
2022-12-18T17:05:12.398Z,12.09
2022-12-18T17:06:52.163Z,12.09
2022-12-18T17:08:31.916Z,12.09
2022-12-18T17:10:11.680Z,12.09
2022-12-18T17:11:51.433Z,12.09
2022-12-18T17:13:31.194Z,12.06
2022-12-18T17:15:10.961Z,12.06
2022-12-18T17:16:50.725Z,12.08
2022-12-18T17:18:30.489Z,12.09
2022-12-18T17:20:10.263Z,12.06
2022-12-18T17:21:50.010Z,12.09
2022-12-18T17:23:29.818Z,12.06
2022-12-18T17:25:09.569Z,12.06
2022-12-18T17:26:49.310Z,12.09
2022-12-18T17:28:29.068Z,12.09
2022-12-18T17:30:08.840Z,12.09
2022-12-18T17:31:48.630Z,12.07
2022-12-18T17:33:28.410Z,12.09
2022-12-18T17:35:08.139Z,12.06
2022-12-18T17:36:47.892Z,12.07
2022-12-18T17:38:27.647Z,12.06
2022-12-18T17:40:07.460Z,12.06
2022-12-18T17:41:47.184Z,12.07
2022-12-18T17:43:26.937Z,12.06
2022-12-18T17:45:06.728Z,12.08
2022-12-18T17:46:46.503Z,12.08
2022-12-18T17:48:26.231Z,12.06
2022-12-18T17:50:06.004Z,12.09
2022-12-18T17:51:45.755Z,12.08
2022-12-18T17:53:25.535Z,12.06
2022-12-18T17:55:05.299Z,12.06
2022-12-18T17:56:45.061Z,12.06
2022-12-18T17:58:24.831Z,12.06
2022-12-18T18:00:04.572Z,12.06
2022-12-18T18:01:44.373Z,12.06
2022-12-18T18:03:24.114Z,12.08
2022-12-18T18:05:03.878Z,12.09
2022-12-18T18:06:43.655Z,12.08
2022-12-18T18:08:23.396Z,12.06
2022-12-18T18:10:03.199Z,12.08
2022-12-18T18:11:42.928Z,12.05
2022-12-18T18:13:22.687Z,12.08
2022-12-18T18:15:02.469Z,12.07
2022-12-18T18:16:42.239Z,12.06
2022-12-18T18:18:21.990Z,12.07
2022-12-18T18:20:01.756Z,12.07
2022-12-18T18:21:41.519Z,12.07
2022-12-18T18:23:21.275Z,12.07
2022-12-18T18:25:01.047Z,12.07
2022-12-18T18:26:40.856Z,12.07
2022-12-18T18:28:20.561Z,12.05
2022-12-18T18:30:00.336Z,12.07
2022-12-18T18:31:40.100Z,12.06
2022-12-18T18:33:19.876Z,12.07
2022-12-18T18:34:59.629Z,12.07
2022-12-18T18:36:39.392Z,12.08
2022-12-18T18:38:19.174Z,12.07
2022-12-18T18:39:58.941Z,12.08
2022-12-18T18:41:38.675Z,12.07
2022-12-18T18:43:18.493Z,12.07
2022-12-18T18:44:58.342Z,12.07
2022-12-18T18:46:38.020Z,12.08
2022-12-18T18:48:17.744Z,12.05
2022-12-18T18:49:57.496Z,12.07
2022-12-18T18:51:37.271Z,12.08
2022-12-18T18:53:17.020Z,12.07
2022-12-18T18:54:56.795Z,12.05
2022-12-18T18:56:36.570Z,12.07
2022-12-18T18:58:16.325Z,12.08
2022-12-18T18:59:56.080Z,12.06
2022-12-18T19:01:35.839Z,12.05
2022-12-18T19:03:15.645Z,12.08
2022-12-18T19:04:55.406Z,12.08
2022-12-18T19:06:35.144Z,12.08
2022-12-18T19:08:14.917Z,12.07
2022-12-18T19:09:54.654Z,12.05
2022-12-18T19:11:34.426Z,12.05
2022-12-18T19:13:14.199Z,12.05
2022-12-18T19:14:53.974Z,12.07
2022-12-18T19:16:33.731Z,12.07
2022-12-18T19:18:13.475Z,12.05
2022-12-18T19:19:53.269Z,12.05
2022-12-18T19:21:33.019Z,12.06
2022-12-18T19:23:12.795Z,12.07
2022-12-18T19:24:52.529Z,12.05
2022-12-18T19:26:32.318Z,12.05
2022-12-18T19:28:12.074Z,12.07
2022-12-18T19:29:51.889Z,12.07
2022-12-18T19:31:31.597Z,12.07
2022-12-18T19:33:11.362Z,12.07
2022-12-18T19:34:51.138Z,12.07
2022-12-18T19:36:30.892Z,12.07
2022-12-18T19:38:10.652Z,12.07
2022-12-18T19:39:50.423Z,12.07
2022-12-18T19:41:30.215Z,12.05
2022-12-18T19:43:09.944Z,12.06
2022-12-18T19:44:49.727Z,12.04
2022-12-18T19:46:29.467Z,12.04
2022-12-18T19:48:09.228Z,12.06
2022-12-18T19:49:49.006Z,12.07
2022-12-18T19:51:28.765Z,12.06
2022-12-18T19:53:08.509Z,12.07
2022-12-18T19:54:48.320Z,12.06
2022-12-18T19:56:28.055Z,12.06
2022-12-18T19:58:07.826Z,12.06
2022-12-18T19:59:47.595Z,12.06
2022-12-18T20:01:27.340Z,12.06
2022-12-18T20:03:07.099Z,12.06
2022-12-18T20:04:46.865Z,12.07
2022-12-18T20:06:26.896Z,12.07
2022-12-18T20:08:06.393Z,12.04
2022-12-18T20:09:46.181Z,12.04
2022-12-18T20:11:25.923Z,12.04
2022-12-18T20:13:05.709Z,12.06
2022-12-18T20:14:45.572Z,12.06
2022-12-18T20:16:25.210Z,12.06
2022-12-18T20:18:04.972Z,12.04
2022-12-18T20:19:44.836Z,12.04
2022-12-18T20:21:24.518Z,12.06
2022-12-18T20:23:04.272Z,12.06
2022-12-18T20:24:44.090Z,12.06
2022-12-18T20:26:23.789Z,12.06
2022-12-18T20:28:03.595Z,12.06
2022-12-18T20:29:43.331Z,12.05
2022-12-18T20:31:23.091Z,12.04
2022-12-18T20:33:02.869Z,12.04
2022-12-18T20:34:42.624Z,12.06
2022-12-18T20:36:22.391Z,12.07
2022-12-18T20:38:02.155Z,12.05
2022-12-18T20:39:41.912Z,12.06
2022-12-18T20:41:21.702Z,12.05
2022-12-18T20:43:01.455Z,12.05
2022-12-18T20:44:41.201Z,12.06
2022-12-18T20:46:20.972Z,12.05
2022-12-18T20:48:00.729Z,12.04
2022-12-18T20:49:40.513Z,12.04
2022-12-18T20:51:20.302Z,12.03
2022-12-18T20:53:00.023Z,12.05
2022-12-18T20:54:39.819Z,12.06
2022-12-18T20:56:19.547Z,12.05
2022-12-18T20:57:59.313Z,12.03
2022-12-18T20:59:39.071Z,12.05
2022-12-18T21:01:18.848Z,12.05
2022-12-18T21:02:58.596Z,12.06
2022-12-18T21:04:38.372Z,12.05
2022-12-18T21:06:18.138Z,12.06
2022-12-18T21:07:57.890Z,12.05
2022-12-18T21:09:37.659Z,12.05
2022-12-18T21:11:17.498Z,12.03
2022-12-18T21:12:57.179Z,12.05
2022-12-18T21:14:36.967Z,12.06
2022-12-18T21:16:16.758Z,12.06
2022-12-18T21:17:56.483Z,12.03
2022-12-18T21:19:36.255Z,12.05
2022-12-18T21:21:15.999Z,12.03
2022-12-18T21:22:55.770Z,12.06
2022-12-18T21:24:35.576Z,12.03
2022-12-18T21:26:15.305Z,12.03
2022-12-18T21:27:55.068Z,12.05